Time;durP1;ratioP1;P1;durP2;ratioP2;P2;SDS_P1;SDS_P2;PMS_P1;PMS_P2;Temp;Humidity;BMP_temperature;BMP_pressure;BME280_temperature;BME280_humidity;BME280_pressure;Samples;Min_cycle;Max_cycle;Signal;HPM_P1;HPM_P2
2023/03/24 00:01:04;;;;;;;38.10;22.48;;;;;;;;;;5013457;28;20034;-70
2023/03/24 00:03:30;;;;;;;34.95;21.85;;;;;;;;;;5013405;28;20024;-71
2023/03/24 00:06:00;;;;;;;33.65;21.85;;;;;;;;;;5013518;28;20029;-69
2023/03/24 00:08:29;;;;;;;33.83;21.58;;;;;;;;;;5013495;28;20443;-69
2023/03/24 00:11:03;;;;;;;36.80;21.50;;;;;;;;;;5013166;28;20033;-69
2023/03/24 00:13:31;;;;;;;36.08;22.27;;;;;;;;;;5013608;28;20034;-69
2023/03/24 00:15:57;;;;;;;36.22;20.77;;;;;;;;;;4995958;28;20049;-70
2023/03/24 00:18:24;;;;;;;39.85;23.90;;;;;;;;;;5011824;28;20076;-69
2023/03/24 00:20:57;;;;;;;35.88;24.02;;;;;;;;;;4995211;28;20038;-69
2023/03/24 00:23:25;;;;;;;35.78;22.58;;;;;;;;;;5012798;28;20069;-69
2023/03/24 00:26:02;;;;;;;37.15;22.75;;;;;;;;;;5013121;28;20117;-69
2023/03/24 00:28:32;;;;;;;38.80;24.13;;;;;;;;;;5012592;28;20522;-70
2023/03/24 00:31:00;;;;;;;39.58;24.83;;;;;;;;;;5013099;28;20492;-69
2023/03/24 00:33:31;;;;;;;37.15;23.95;;;;;;;;;;5012782;28;20040;-69
2023/03/24 00:36:02;;;;;;;41.03;25.58;;;;;;;;;;5011826;28;20373;-69
2023/03/24 00:38:28;;;;;;;38.33;24.48;;;;;;;;;;5009938;28;20033;-69
2023/03/24 00:40:54;;;;;;;46.55;25.92;;;;;;;;;;4993192;28;20078;-69
2023/03/24 00:43:20;;;;;;;56.45;25.02;;;;;;;;;;5012226;28;20495;-69
2023/03/24 00:45:46;;;;;;;42.60;26.98;;;;;;;;;;5012618;28;20200;-69
2023/03/24 00:48:17;;;;;;;41.35;23.98;;;;;;;;;;4994384;28;20041;-70
2023/03/24 00:50:47;;;;;;;40.33;24.15;;;;;;;;;;5013211;28;20451;-69
2023/03/24 00:53:14;;;;;;;38.15;25.45;;;;;;;;;;4994364;28;20052;-70
2023/03/24 00:55:45;;;;;;;44.90;26.50;;;;;;;;;;5013666;28;20030;-70
2023/03/24 00:58:18;;;;;;;46.13;27.30;;;;;;;;;;5012846;28;20461;-69
2023/03/24 01:00:44;;;;;;;;;;;;;;;;;;5012189;28;20037;-69
2023/03/24 01:03:10;;;;;;;43.33;25.30;;;;;;;;;;5010919;28;20344;-70
2023/03/24 01:05:40;;;;;;;42.38;27.25;;;;;;;;;;5011450;28;20041;-70
2023/03/24 01:08:09;;;;;;;41.47;25.98;;;;;;;;;;4994600;28;20022;-70
2023/03/24 01:10:49;;;;;;;45.47;27.33;;;;;;;;;;4994534;28;20415;-70
2023/03/24 01:13:16;;;;;;;45.22;26.73;;;;;;;;;;4993468;28;20517;-69
2023/03/24 01:15:44;;;;;;;49.80;27.20;;;;;;;;;;4994601;28;20034;-69
2023/03/24 01:18:14;;;;;;;42.75;28.90;;;;;;;;;;5010987;28;20064;-69
2023/03/24 01:20:45;;;;;;;43.25;27.75;;;;;;;;;;4994200;28;20038;-69
2023/03/24 01:23:16;;;;;;;44.17;28.40;;;;;;;;;;4995023;28;20041;-69
2023/03/24 01:25:44;;;;;;;42.63;27.23;;;;;;;;;;5012005;28;20038;-69
2023/03/24 01:28:16;;;;;;;41.97;25.70;;;;;;;;;;5002235;28;20029;-69
2023/03/24 01:30:43;;;;;;;45.88;28.15;;;;;;;;;;5031918;28;20056;-69
2023/03/24 01:33:09;;;;;;;46.75;28.30;;;;;;;;;;5029604;28;20025;-69
2023/03/24 01:35:35;;;;;;;47.00;29.75;;;;;;;;;;5014556;28;20033;-69
2023/03/24 01:38:06;;;;;;;48.78;32.20;;;;;;;;;;5025831;28;20022;-70
2023/03/24 01:40:34;;;;;;;48.70;32.72;;;;;;;;;;5011590;28;20037;-69
2023/03/24 01:43:00;;;;;;;50.67;32.85;;;;;;;;;;5010894;28;20387;-69
2023/03/24 01:45:38;;;;;;;41.08;29.20;;;;;;;;;;4994315;28;20510;-69
2023/03/24 01:48:19;;;;;;;44.65;27.95;;;;;;;;;;5015306;28;20420;-70
2023/03/24 01:50:51;;;;;;;44.85;27.67;;;;;;;;;;5009281;28;20034;-69
2023/03/24 01:53:17;;;;;;;41.83;26.92;;;;;;;;;;5017782;28;20033;-70
2023/03/24 01:55:46;;;;;;;41.53;28.55;;;;;;;;;;5031606;28;20073;-70
2023/03/24 01:58:16;;;;;;;37.15;26.45;;;;;;;;;;5029651;28;20029;-69
2023/03/24 02:01:05;;;;;;;39.40;26.65;;;;;;;;;;5011769;28;20045;-70
2023/03/24 02:03:51;;;;;;;42.40;26.40;;;;;;;;;;5018961;28;20053;-69
2023/03/24 02:06:19;;;;;;;49.25;27.75;;;;;;;;;;4994030;28;20472;-69
2023/03/24 02:08:58;;;;;;;46.83;29.67;;;;;;;;;;5011288;28;20053;-69
2023/03/24 02:11:30;;;;;;;37.92;25.63;;;;;;;;;;4994191;28;20112;-70
2023/03/24 02:14:00;;;;;;;41.60;29.05;;;;;;;;;;4994062;28;20036;-70
2023/03/24 02:16:38;;;;;;;41.25;26.50;;;;;;;;;;5010289;28;20052;-70
2023/03/24 02:19:36;;;;;;;40.97;26.50;;;;;;;;;;5005769;28;20120;-70
2023/03/24 02:22:41;;;;;;;40.00;26.65;;;;;;;;;;5029809;28;20029;-70
2023/03/24 02:25:12;;;;;;;43.92;27.40;;;;;;;;;;5031188;28;20041;-70
2023/03/24 02:28:03;;;;;;;38.00;25.33;;;;;;;;;;5012891;28;20038;-70
2023/03/24 02:30:47;;;;;;;36.83;24.27;;;;;;;;;;4993528;28;20038;-70
2023/03/24 02:33:24;;;;;;;40.63;26.10;;;;;;;;;;4993467;28;20030;-69
2023/03/24 02:36:25;;;;;;;40.78;25.45;;;;;;;;;;4993726;28;20539;-69
2023/03/24 02:39:28;;;;;;;34.63;22.02;;;;;;;;;;5025877;28;20034;-69
2023/03/24 02:42:27;;;;;;;30.00;20.60;;;;;;;;;;4993751;28;20038;-70
2023/03/24 02:45:00;;;;;;;36.42;22.05;;;;;;;;;;4993487;28;20121;-70
2023/03/24 02:47:31;;;;;;;32.65;21.17;;;;;;;;;;4994148;28;20037;-70
2023/03/24 02:50:00;;;;;;;26.85;18.10;;;;;;;;;;5026234;28;20034;-70
2023/03/24 02:52:29;;;;;;;32.88;20.48;;;;;;;;;;4993570;28;20076;-70
2023/03/24 02:55:08;;;;;;;31.92;21.23;;;;;;;;;;5028538;28;20117;-70
2023/03/24 02:57:51;;;;;;;36.90;22.48;;;;;;;;;;5031129;28;20514;-69
2023/03/24 03:00:58;;;;;;;35.83;22.05;;;;;;;;;;4991285;28;20407;-69
2023/03/24 03:03:52;;;;;;;32.45;20.15;;;;;;;;;;5013762;28;20487;-70
2023/03/24 03:06:31;;;;;;;29.88;19.65;;;;;;;;;;4992718;28;20026;-70
2023/03/24 03:09:06;;;;;;;28.40;19.40;;;;;;;;;;4991523;28;20034;-69
2023/03/24 03:11:32;;;;;;;34.33;20.77;;;;;;;;;;5010887;28;20077;-69
2023/03/24 03:14:16;;;;;;;33.80;20.52;;;;;;;;;;5017076;28;20439;-70
2023/03/24 03:16:53;;;;;;;30.27;19.33;;;;;;;;;;5014564;28;20121;-70
2023/03/24 03:19:30;;;;;;;29.58;18.40;;;;;;;;;;5018541;28;20046;-69
2023/03/24 03:21:58;;;;;;;31.60;18.58;;;;;;;;;;5012942;28;20029;-69
2023/03/24 03:24:38;;;;;;;30.42;18.58;;;;;;;;;;5021205;28;20026;-69
2023/03/24 03:27:07;;;;;;;32.97;19.73;;;;;;;;;;5033878;28;20032;-68
2023/03/24 03:29:38;;;;;;;30.70;16.90;;;;;;;;;;5021103;28;20034;-68
2023/03/24 03:32:09;;;;;;;32.17;19.60;;;;;;;;;;4995402;28;20406;-69
2023/03/24 03:34:35;;;;;;;33.22;19.20;;;;;;;;;;5002389;28;20041;-69
2023/03/24 03:37:10;;;;;;;33.15;18.65;;;;;;;;;;4996339;28;20078;-69
2023/03/24 03:40:11;;;;;;;37.28;20.23;;;;;;;;;;5023408;28;20495;-69
2023/03/24 03:42:40;;;;;;;;;;;;;;;;;;5014810;28;20112;-69
2023/03/24 03:45:08;;;;;;;32.78;20.23;;;;;;;;;;5015359;28;19917;-69
2023/03/24 03:47:35;;;;;;;39.13;23.85;;;;;;;;;;5023588;28;20074;-68
2023/03/24 03:50:03;;;;;;;35.42;23.08;;;;;;;;;;5009416;28;20074;-70
2023/03/24 03:52:29;;;;;;;42.70;23.00;;;;;;;;;;4996256;28;20033;-70
2023/03/24 03:54:56;;;;;;;37.25;20.67;;;;;;;;;;4995666;28;20041;-69
2023/03/24 03:57:23;;;;;;;33.47;21.15;;;;;;;;;;4996112;28;20041;-70
2023/03/24 04:00:19;;;;;;;34.17;20.50;;;;;;;;;;5005368;28;20041;-70
2023/03/24 04:03:26;;;;;;;38.45;21.52;;;;;;;;;;5023737;28;20038;-70
2023/03/24 04:06:02;;;;;;;30.33;19.70;;;;;;;;;;4996067;28;20037;-70
2023/03/24 04:08:49;;;;;;;38.55;21.42;;;;;;;;;;5013246;28;20080;-69
2023/03/24 04:11:39;;;;;;;41.60;22.80;;;;;;;;;;4995854;28;20065;-69
2023/03/24 04:14:33;;;;;;;33.45;20.30;;;;;;;;;;5013696;28;20056;-69
2023/03/24 04:17:45;;;;;;;30.15;19.40;;;;;;;;;;4985944;28;20598;-70
2023/03/24 04:20:23;;;;;;;34.90;21.23;;;;;;;;;;5015153;28;20040;-70
2023/03/24 04:23:13;;;;;;;32.88;20.05;;;;;;;;;;5015378;28;20419;-70
2023/03/24 04:25:49;;;;;;;33.47;19.45;;;;;;;;;;4996524;28;20470;-69
2023/03/24 04:28:38;;;;;;;29.65;19.08;;;;;;;;;;4994876;28;20040;-70
2023/03/24 04:31:06;;;;;;;29.23;18.20;;;;;;;;;;4995323;28;20518;-69
2023/03/24 04:33:50;;;;;;;32.20;19.17;;;;;;;;;;5006286;28;20041;-69
2023/03/24 04:36:17;;;;;;;29.52;18.23;;;;;;;;;;4991390;28;20030;-69
2023/03/24 04:39:03;;;;;;;31.13;17.60;;;;;;;;;;5012303;28;20029;-69
2023/03/24 04:41:36;;;;;;;28.58;18.00;;;;;;;;;;4994034;28;20037;-69
2023/03/24 04:44:12;;;;;;;27.15;17.45;;;;;;;;;;4993992;28;20041;-69
2023/03/24 04:46:55;;;;;;;34.60;16.30;;;;;;;;;;4998558;28;20482;-69
2023/03/24 04:49:24;;;;;;;33.70;16.25;;;;;;;;;;5012887;28;20482;-70
2023/03/24 04:51:50;;;;;;;25.00;15.38;;;;;;;;;;4994512;28;20032;-70
2023/03/24 04:54:22;;;;;;;25.17;14.82;;;;;;;;;;5010660;28;20026;-69
2023/03/24 04:56:53;;;;;;;24.77;14.40;;;;;;;;;;5000760;28;20093;-69
2023/03/24 04:59:37;;;;;;;42.13;18.58;;;;;;;;;;4998464;28;20161;-70
2023/03/24 05:02:05;;;;;;;34.40;16.13;;;;;;;;;;4994423;28;20037;-69
2023/03/24 05:04:36;;;;;;;30.60;14.50;;;;;;;;;;5000697;28;20408;-70
2023/03/24 05:07:22;;;;;;;23.77;13.13;;;;;;;;;;5005593;28;20060;-70
2023/03/24 05:09:52;;;;;;;25.80;13.18;;;;;;;;;;4994906;28;20041;-70
2023/03/24 05:12:17;;;;;;;17.58;10.90;;;;;;;;;;4994880;28;20032;-69
2023/03/24 05:15:13;;;;;;;17.00;11.85;;;;;;;;;;5003017;28;20038;-69
2023/03/24 05:17:42;;;;;;;25.90;12.90;;;;;;;;;;5012313;28;20049;-69
2023/03/24 05:20:09;;;;;;;19.05;12.85;;;;;;;;;;5010873;28;20069;-69
2023/03/24 05:22:37;;;;;;;26.80;13.65;;;;;;;;;;5011004;28;20096;-69
2023/03/24 05:25:04;;;;;;;23.33;13.55;;;;;;;;;;4994525;28;20029;-69
2023/03/24 05:27:30;;;;;;;24.27;13.55;;;;;;;;;;4994532;28;20065;-69
2023/03/24 05:30:00;;;;;;;18.88;13.20;;;;;;;;;;4994387;28;20050;-69
2023/03/24 05:32:31;;;;;;;25.48;13.85;;;;;;;;;;5011103;28;20191;-70
2023/03/24 05:34:57;;;;;;;18.50;12.63;;;;;;;;;;4994778;28;20411;-69
2023/03/24 05:37:29;;;;;;;23.58;13.05;;;;;;;;;;5002103;28;20025;-72
2023/03/24 05:39:55;;;;;;;19.30;11.75;;;;;;;;;;5002362;28;20452;-71
2023/03/24 05:42:40;;;;;;;19.00;10.80;;;;;;;;;;4994978;28;20400;-71
2023/03/24 05:45:08;;;;;;;18.63;10.30;;;;;;;;;;4978340;28;20092;-71
2023/03/24 05:47:36;;;;;;;15.57;10.00;;;;;;;;;;4994840;28;20034;-70
2023/03/24 05:50:02;;;;;;;22.33;10.65;;;;;;;;;;5011912;28;20037;-72
2023/03/24 05:52:30;;;;;;;17.63;10.98;;;;;;;;;;4994162;28;20026;-69
2023/03/24 05:55:09;;;;;;;20.05;10.68;;;;;;;;;;4993231;28;20030;-70
2023/03/24 05:57:37;;;;;;;18.27;11.00;;;;;;;;;;5002172;28;20029;-70
2023/03/24 06:00:13;;;;;;;21.30;11.13;;;;;;;;;;5012111;28;20113;-71
2023/03/24 06:02:50;;;;;;;21.88;12.52;;;;;;;;;;5010566;28;20100;-72
2023/03/24 06:05:35;;;;;;;18.58;12.43;;;;;;;;;;5027027;28;20029;-71
2023/03/24 06:08:02;;;;;;;18.77;13.45;;;;;;;;;;5010122;28;20033;-70
2023/03/24 06:10:31;;;;;;;26.90;14.13;;;;;;;;;;5009909;28;20021;-71
2023/03/24 06:12:57;;;;;;;27.90;14.80;;;;;;;;;;4993111;28;20107;-71
2023/03/24 06:15:26;;;;;;;24.35;16.52;;;;;;;;;;5002848;28;20018;-71
2023/03/24 06:17:56;;;;;;;20.88;13.13;;;;;;;;;;5010244;28;20030;-71
2023/03/24 06:20:32;;;;;;;24.65;13.95;;;;;;;;;;5026376;28;20033;-70
2023/03/24 06:23:03;;;;;;;23.73;13.95;;;;;;;;;;5027076;28;20108;-72
2023/03/24 06:25:50;;;;;;;25.63;14.70;;;;;;;;;;5011187;28;20050;-72
2023/03/24 06:28:21;;;;;;;21.92;14.30;;;;;;;;;;5011315;28;20040;-72
2023/03/24 06:30:49;;;;;;;21.00;14.63;;;;;;;;;;4995545;28;20034;-72
2023/03/24 06:33:24;;;;;;;23.08;15.40;;;;;;;;;;4978333;28;20116;-71
2023/03/24 06:35:53;;;;;;;21.60;14.57;;;;;;;;;;4994175;28;20056;-72
2023/03/24 06:38:19;;;;;;;31.48;15.88;;;;;;;;;;4994177;28;20025;-71
2023/03/24 06:40:46;;;;;;;27.08;16.05;;;;;;;;;;5010219;28;20042;-71
2023/03/24 06:43:12;;;;;;;25.60;15.25;;;;;;;;;;4993766;28;20113;-71
2023/03/24 06:45:40;;;;;;;31.23;17.77;;;;;;;;;;5011144;28;20034;-71
2023/03/24 06:48:10;;;;;;;26.10;17.98;;;;;;;;;;4992672;28;20112;-71
2023/03/24 06:50:37;;;;;;;26.10;17.40;;;;;;;;;;5011069;28;20547;-71
2023/03/24 06:53:07;;;;;;;28.33;16.50;;;;;;;;;;5012341;28;20432;-70
2023/03/24 06:55:35;;;;;;;27.10;15.10;;;;;;;;;;4997725;28;20037;-70
2023/03/24 06:58:02;;;;;;;24.42;15.98;;;;;;;;;;4996019;28;20353;-71
2023/03/24 07:00:50;;;;;;;27.02;14.80;;;;;;;;;;5004019;28;20389;-70
2023/03/24 07:03:41;;;;;;;29.20;16.10;;;;;;;;;;5009378;28;20472;-72
2023/03/24 07:06:30;;;;;;;27.60;15.32;;;;;;;;;;4997154;28;20072;-71
2023/03/24 07:09:03;;;;;;;22.77;14.60;;;;;;;;;;5012389;28;20069;-71
2023/03/24 07:11:30;;;;;;;22.05;15.15;;;;;;;;;;5015565;28;20080;-72
2023/03/24 07:13:58;;;;;;;24.10;15.82;;;;;;;;;;5016410;28;20018;-71
2023/03/24 07:16:25;;;;;;;24.17;16.15;;;;;;;;;;5015422;28;20454;-70
2023/03/24 07:19:23;;;;;;;26.30;15.60;;;;;;;;;;5002265;28;20026;-70
2023/03/24 07:22:00;;;;;;;27.02;15.38;;;;;;;;;;4996678;28;20054;-72
2023/03/24 07:24:40;;;;;;;28.08;16.52;;;;;;;;;;4993648;28;20038;-71
2023/03/24 07:27:26;;;;;;;23.58;15.98;;;;;;;;;;5009864;28;20037;-72
2023/03/24 07:29:52;;;;;;;26.17;16.13;;;;;;;;;;4999503;28;20037;-71
2023/03/24 07:32:33;;;;;;;26.05;16.27;;;;;;;;;;4979371;28;20458;-71
2023/03/24 07:35:01;;;;;;;22.92;16.35;;;;;;;;;;5036240;28;20118;-72
2023/03/24 07:37:27;;;;;;;25.05;17.30;;;;;;;;;;5005798;28;20026;-72
2023/03/24 07:39:53;;;;;;;23.20;15.80;;;;;;;;;;5033831;28;20506;-72
2023/03/24 07:42:18;;;;;;;24.42;16.50;;;;;;;;;;5015714;28;20052;-73
2023/03/24 07:45:05;;;;;;;28.13;16.45;;;;;;;;;;5033598;28;20053;-72
2023/03/24 07:47:31;;;;;;;23.20;16.30;;;;;;;;;;5033819;28;20487;-72
2023/03/24 07:49:56;;;;;;;22.85;16.17;;;;;;;;;;5033501;28;20048;-73
2023/03/24 07:52:22;;;;;;;23.33;15.77;;;;;;;;;;5033538;28;20037;-73
2023/03/24 07:54:51;;;;;;;26.52;16.45;;;;;;;;;;4999584;28;20025;-73
2023/03/24 07:57:45;;;;;;;24.67;15.88;;;;;;;;;;5016011;28;20041;-73
2023/03/24 08:00:16;;;;;;;20.90;15.40;;;;;;;;;;5000740;28;20045;-73
2023/03/24 08:02:52;;;;;;;21.30;14.07;;;;;;;;;;5001468;28;20444;-73
2023/03/24 08:05:45;;;;;;;21.15;15.55;;;;;;;;;;4954712;28;20046;-73
2023/03/24 08:08:18;;;;;;;20.45;15.00;;;;;;;;;;5009476;28;20034;-74
2023/03/24 08:10:45;;;;;;;26.08;14.40;;;;;;;;;;5010593;28;20149;-72
2023/03/24 08:13:11;;;;;;;23.67;14.90;;;;;;;;;;4984367;28;20018;-74
2023/03/24 08:15:36;;;;;;;23.90;14.30;;;;;;;;;;5005824;28;20052;-73
2023/03/24 08:18:02;;;;;;;21.05;14.27;;;;;;;;;;5006472;28;20029;-74
2023/03/24 08:20:28;;;;;;;22.13;14.45;;;;;;;;;;5010049;28;20117;-74
2023/03/24 08:22:55;;;;;;;23.55;15.13;;;;;;;;;;5012445;28;20038;-72
2023/03/24 08:25:23;;;;;;;19.92;13.85;;;;;;;;;;5011829;28;20515;-71
2023/03/24 08:27:49;;;;;;;22.48;14.27;;;;;;;;;;5010028;28;20144;-73
2023/03/24 08:30:20;;;;;;;22.40;14.05;;;;;;;;;;5009703;28;20056;-74
2023/03/24 08:32:52;;;;;;;25.70;14.38;;;;;;;;;;5002708;28;20022;-74
2023/03/24 08:35:21;;;;;;;18.70;13.93;;;;;;;;;;5013813;28;20177;-73
2023/03/24 08:37:47;;;;;;;22.23;14.07;;;;;;;;;;5031237;28;20052;-72
2023/03/24 08:40:18;;;;;;;20.15;13.68;;;;;;;;;;5031481;28;20030;-73
2023/03/24 08:42:48;;;;;;;20.30;13.48;;;;;;;;;;5009856;28;20372;-72
2023/03/24 08:45:14;;;;;;;21.63;13.20;;;;;;;;;;5028062;28;20092;-73
2023/03/24 08:47:40;;;;;;;20.17;13.80;;;;;;;;;;5023406;28;20029;-73
2023/03/24 08:50:08;;;;;;;20.52;12.77;;;;;;;;;;5032049;28;20057;-74
2023/03/24 08:52:34;;;;;;;17.35;12.32;;;;;;;;;;5031958;28;20432;-72
2023/03/24 08:55:02;;;;;;;17.05;12.10;;;;;;;;;;5031962;28;20076;-73
2023/03/24 08:57:27;;;;;;;19.00;12.38;;;;;;;;;;5013047;28;20033;-73
2023/03/24 08:59:53;;;;;;;19.73;13.77;;;;;;;;;;4994256;28;20411;-72
2023/03/24 09:02:19;;;;;;;20.42;13.02;;;;;;;;;;5029076;28;20517;-72
2023/03/24 09:04:45;;;;;;;20.33;13.82;;;;;;;;;;5031786;28;20025;-71
2023/03/24 09:07:11;;;;;;;17.48;12.05;;;;;;;;;;5031691;28;20029;-72
2023/03/24 09:09:38;;;;;;;17.33;12.57;;;;;;;;;;5013951;28;20435;-71
2023/03/24 09:12:04;;;;;;;18.60;12.55;;;;;;;;;;5025575;28;20104;-72
2023/03/24 09:14:30;;;;;;;17.27;12.32;;;;;;;;;;4993824;28;20488;-73
2023/03/24 09:16:56;;;;;;;20.85;12.90;;;;;;;;;;5012043;28;20037;-71
2023/03/24 09:19:21;;;;;;;19.50;11.98;;;;;;;;;;4994122;28;20042;-72
2023/03/24 09:21:47;;;;;;;15.48;10.85;;;;;;;;;;5011722;28;20022;-72
2023/03/24 09:24:13;;;;;;;16.80;11.68;;;;;;;;;;5011068;28;20030;-72
2023/03/24 09:26:39;;;;;;;20.75;11.38;;;;;;;;;;5011491;28;20055;-71
2023/03/24 09:29:05;;;;;;;18.30;12.75;;;;;;;;;;5011549;28;20060;-72
2023/03/24 09:31:31;;;;;;;18.23;11.25;;;;;;;;;;5011547;28;20405;-72
2023/03/24 09:33:57;;;;;;;17.83;11.68;;;;;;;;;;5010496;28;20056;-73
2023/03/24 09:36:22;;;;;;;22.48;12.25;;;;;;;;;;5011734;28;20384;-72
2023/03/24 09:38:48;;;;;;;16.50;11.13;;;;;;;;;;5010936;28;20069;-71
2023/03/24 09:41:17;;;;;;;15.45;10.20;;;;;;;;;;5011670;28;20029;-72
2023/03/24 09:43:55;;;;;;;14.40;9.82;;;;;;;;;;5011667;28;20123;-71
2023/03/24 09:46:34;;;;;;;17.00;9.90;;;;;;;;;;5011858;28;20026;-74
2023/03/24 09:49:00;;;;;;;14.27;9.13;;;;;;;;;;5011767;28;20349;-72
2023/03/24 09:51:39;;;;;;;13.57;9.45;;;;;;;;;;5011449;28;20040;-72
2023/03/24 09:54:21;;;;;;;13.43;8.98;;;;;;;;;;4993880;28;20088;-72
2023/03/24 09:56:48;;;;;;;13.52;9.57;;;;;;;;;;4990817;28;20038;-71
2023/03/24 09:59:20;;;;;;;18.13;8.88;;;;;;;;;;5007600;28;20380;-70
2023/03/24 10:01:46;;;;;;;14.70;9.60;;;;;;;;;;5011593;28;20447;-73
2023/03/24 10:04:15;;;;;;;13.98;8.68;;;;;;;;;;5010938;28;20038;-70
2023/03/24 10:06:42;;;;;;;14.02;9.32;;;;;;;;;;5011179;28;20153;-73
2023/03/24 10:09:26;;;;;;;14.82;9.90;;;;;;;;;;5010713;28;20120;-72
2023/03/24 10:12:16;;;;;;;18.95;9.63;;;;;;;;;;5011317;28;20037;-72
2023/03/24 10:15:16;;;;;;;14.75;10.90;;;;;;;;;;4995345;28;20041;-73
2023/03/24 10:17:57;;;;;;;11.52;9.15;;;;;;;;;;5011040;28;20520;-72
2023/03/24 10:20:34;;;;;;;14.02;8.90;;;;;;;;;;5010722;28;20069;-71
2023/03/24 10:23:34;;;;;;;10.52;7.85;;;;;;;;;;5019130;28;20041;-71
2023/03/24 10:26:03;;;;;;;13.77;7.82;;;;;;;;;;5034350;28;20041;-72
2023/03/24 10:28:38;;;;;;;12.63;8.73;;;;;;;;;;5034906;28;20113;-71
2023/03/24 10:31:09;;;;;;;13.65;7.95;;;;;;;;;;5021897;28;20045;-71
2023/03/24 10:33:39;;;;;;;11.77;7.47;;;;;;;;;;5027299;28;20041;-71
2023/03/24 10:36:11;;;;;;;13.27;8.07;;;;;;;;;;5034606;28;20034;-72
2023/03/24 10:38:37;;;;;;;16.95;8.35;;;;;;;;;;5034531;28;20321;-72
2023/03/24 10:41:03;;;;;;;10.55;7.53;;;;;;;;;;5034370;28;20032;-72
2023/03/24 10:43:31;;;;;;;15.35;7.82;;;;;;;;;;5034620;28;20033;-71
2023/03/24 10:45:58;;;;;;;13.90;9.20;;;;;;;;;;5034062;28;20033;-71
2023/03/24 10:48:39;;;;;;;15.18;9.25;;;;;;;;;;5034577;28;20183;-71
2023/03/24 10:51:06;;;;;;;14.10;8.70;;;;;;;;;;5034006;28;20522;-70
2023/03/24 10:53:35;;;;;;;12.75;8.80;;;;;;;;;;5034452;28;20029;-70
2023/03/24 10:56:00;;;;;;;14.50;9.23;;;;;;;;;;5033689;28;20110;-73
2023/03/24 10:58:38;;;;;;;25.73;15.75;;;;;;;;;;5013501;28;20056;-73
2023/03/24 11:01:22;;;;;;;11.23;8.93;;;;;;;;;;5013384;28;20038;-72
2023/03/24 11:03:48;;;;;;;11.32;8.38;;;;;;;;;;5009370;28;20033;-73
2023/03/24 11:06:18;;;;;;;14.45;9.15;;;;;;;;;;5032601;28;20052;-71
2023/03/24 11:08:44;;;;;;;11.48;8.15;;;;;;;;;;5016363;28;20061;-72
2023/03/24 11:11:31;;;;;;;11.88;7.90;;;;;;;;;;5034026;28;20060;-72
2023/03/24 11:14:02;;;;;;;13.75;8.48;;;;;;;;;;5034154;28;20104;-71
2023/03/24 11:16:29;;;;;;;15.85;8.95;;;;;;;;;;5034030;28;20041;-72
2023/03/24 11:19:00;;;;;;;15.65;9.98;;;;;;;;;;5017801;28;20026;-73
2023/03/24 11:21:33;;;;;;;14.73;8.82;;;;;;;;;;5032705;28;20036;-72
2023/03/24 11:24:08;;;;;;;12.40;7.90;;;;;;;;;;5034340;28;20060;-72
2023/03/24 11:26:37;;;;;;;12.80;7.93;;;;;;;;;;5033437;28;20411;-75
2023/03/24 11:29:09;;;;;;;9.95;7.85;;;;;;;;;;5030747;28;20030;-72
2023/03/24 11:31:39;;;;;;;10.93;7.80;;;;;;;;;;5013870;28;20479;-72
2023/03/24 11:34:11;;;;;;;11.70;8.80;;;;;;;;;;5013262;28;20030;-73
2023/03/24 11:36:47;;;;;;;10.52;7.75;;;;;;;;;;5014348;28;20148;-74
2023/03/24 11:39:20;;;;;;;12.57;7.45;;;;;;;;;;5013627;28;20038;-72
2023/03/24 11:42:12;;;;;;;10.13;6.97;;;;;;;;;;4996260;28;20464;-72
2023/03/24 11:44:37;;;;;;;17.15;10.07;;;;;;;;;;5012745;28;20415;-73
2023/03/24 11:47:17;;;;;;;10.73;7.82;;;;;;;;;;5021193;28;20025;-71
2023/03/24 11:49:51;;;;;;;11.13;8.10;;;;;;;;;;5014649;28;20506;-73
2023/03/24 11:52:34;;;;;;;13.50;8.77;;;;;;;;;;5014460;28;20061;-74
2023/03/24 11:55:00;;;;;;;10.48;7.93;;;;;;;;;;5012114;28;20034;-74
2023/03/24 11:57:41;;;;;;;10.85;7.78;;;;;;;;;;5011309;28;20112;-71
2023/03/24 12:00:14;;;;;;;13.23;8.05;;;;;;;;;;5009634;28;20029;-72
2023/03/24 12:02:51;;;;;;;11.07;7.45;;;;;;;;;;5013221;28;20042;-71
2023/03/24 12:05:29;;;;;;;14.05;8.00;;;;;;;;;;5011253;28;20439;-73
2023/03/24 12:08:16;;;;;;;10.00;7.10;;;;;;;;;;5013200;28;20565;-72
2023/03/24 12:10:47;;;;;;;11.93;8.10;;;;;;;;;;5013413;28;20046;-71
2023/03/24 12:13:37;;;;;;;10.05;7.90;;;;;;;;;;5013514;28;20069;-72
2023/03/24 12:16:09;;;;;;;11.63;8.02;;;;;;;;;;5019823;28;20398;-72
2023/03/24 12:18:46;;;;;;;12.95;8.65;;;;;;;;;;5032978;28;20408;-72
2023/03/24 12:21:33;;;;;;;10.45;6.57;;;;;;;;;;5032842;28;20103;-72
2023/03/24 12:24:05;;;;;;;11.20;7.03;;;;;;;;;;5024676;28;20037;-73
2023/03/24 12:26:33;;;;;;;10.95;6.82;;;;;;;;;;5003720;28;20045;-72
2023/03/24 12:29:32;;;;;;;8.88;6.90;;;;;;;;;;5012161;28;20053;-72
2023/03/24 12:32:22;;;;;;;13.50;7.00;;;;;;;;;;4994342;28;20047;-72
2023/03/24 12:35:15;;;;;;;9.20;6.82;;;;;;;;;;5012813;28;20084;-72
2023/03/24 12:38:06;;;;;;;9.48;6.50;;;;;;;;;;5012800;28;20042;-71
2023/03/24 12:40:47;;;;;;;8.50;6.70;;;;;;;;;;5013341;28;20096;-71
2023/03/24 12:43:31;;;;;;;10.38;7.63;;;;;;;;;;4995340;28;20113;-72
2023/03/24 12:46:02;;;;;;;10.70;7.30;;;;;;;;;;5009380;28;20034;-72
2023/03/24 12:49:01;;;;;;;9.65;7.20;;;;;;;;;;5001801;28;20053;-72
2023/03/24 12:51:41;;;;;;;9.70;6.90;;;;;;;;;;5005325;28;20046;-72
2023/03/24 12:54:18;;;;;;;9.60;6.78;;;;;;;;;;5012675;28;20484;-71
2023/03/24 12:56:52;;;;;;;11.32;8.05;;;;;;;;;;5012803;28;20113;-71
2023/03/24 12:59:54;;;;;;;10.55;7.40;;;;;;;;;;5012443;28;20097;-71
2023/03/24 13:02:34;;;;;;;14.07;7.25;;;;;;;;;;5012792;28;20034;-72
2023/03/24 13:05:06;;;;;;;9.82;7.53;;;;;;;;;;5012678;28;20041;-71
2023/03/24 13:07:38;;;;;;;11.55;7.05;;;;;;;;;;5011442;28;20476;-71
2023/03/24 13:10:19;;;;;;;10.73;6.43;;;;;;;;;;5012415;28;20041;-71
2023/03/24 13:12:54;;;;;;;8.35;6.57;;;;;;;;;;5011511;28;20682;-72
2023/03/24 13:15:27;;;;;;;8.50;6.10;;;;;;;;;;5012511;28;20026;-71
2023/03/24 13:18:20;;;;;;;10.77;6.82;;;;;;;;;;5012033;28;20057;-71
2023/03/24 13:21:03;;;;;;;8.07;6.63;;;;;;;;;;5012504;28;20037;-72
2023/03/24 13:23:53;;;;;;;8.17;6.27;;;;;;;;;;5012407;28;20045;-71
2023/03/24 13:26:57;;;;;;;9.25;6.32;;;;;;;;;;5012433;28;20113;-72
2023/03/24 13:29:54;;;;;;;9.23;5.97;;;;;;;;;;5012430;28;20393;-71
2023/03/24 13:32:23;;;;;;;11.23;6.22;;;;;;;;;;5012382;28;20036;-72
2023/03/24 13:35:10;;;;;;;7.90;5.68;;;;;;;;;;5012253;28;20432;-73
2023/03/24 13:38:03;;;;;;;9.57;5.75;;;;;;;;;;5011986;28;20448;-72
2023/03/24 13:40:31;;;;;;;8.07;5.30;;;;;;;;;;4974894;28;20052;-71
2023/03/24 13:43:11;;;;;;;7.03;5.50;;;;;;;;;;5012429;28;20073;-72
2023/03/24 13:45:47;;;;;;;10.43;5.70;;;;;;;;;;5012613;28;20064;-72
2023/03/24 13:48:12;;;;;;;14.32;5.90;;;;;;;;;;5012428;28;20034;-72
2023/03/24 13:50:57;;;;;;;10.07;6.25;;;;;;;;;;5012042;28;20034;-71
2023/03/24 13:53:34;;;;;;;8.10;6.15;;;;;;;;;;5012183;28;20395;-71
2023/03/24 13:56:03;;;;;;;8.38;5.57;;;;;;;;;;5027486;28;20034;-72
2023/03/24 13:58:44;;;;;;;8.13;5.13;;;;;;;;;;5012211;28;20049;-72
2023/03/24 14:01:10;;;;;;;12.65;6.07;;;;;;;;;;5027338;28;20076;-71
2023/03/24 14:04:05;;;;;;;9.10;6.22;;;;;;;;;;5012089;28;20030;-72
2023/03/24 14:06:45;;;;;;;7.97;5.38;;;;;;;;;;5010735;28;20040;-72
2023/03/24 14:09:20;;;;;;;12.15;6.03;;;;;;;;;;5012152;28;20041;-73
2023/03/24 14:11:55;;;;;;;7.13;5.38;;;;;;;;;;5027148;28;20084;-72
2023/03/24 14:14:23;;;;;;;11.40;5.95;;;;;;;;;;5012312;28;20058;-72
2023/03/24 14:17:03;;;;;;;7.00;5.30;;;;;;;;;;5012031;28;20499;-71
2023/03/24 14:19:31;;;;;;;7.97;5.35;;;;;;;;;;5011536;28;20502;-72
2023/03/24 14:22:08;;;;;;;10.93;5.35;;;;;;;;;;5012001;28;20060;-72
2023/03/24 14:24:34;;;;;;;6.88;5.35;;;;;;;;;;5012081;28;20373;-73
2023/03/24 14:27:00;;;;;;;7.38;4.95;;;;;;;;;;5010752;28;20054;-72
2023/03/24 14:29:49;;;;;;;7.75;5.35;;;;;;;;;;5011921;28;20034;-70
2023/03/24 14:32:21;;;;;;;12.90;6.82;;;;;;;;;;5027114;28;20113;-72
2023/03/24 14:34:58;;;;;;;12.73;5.97;;;;;;;;;;5011871;28;20050;-71
2023/03/24 14:37:26;;;;;;;9.27;5.45;;;;;;;;;;5011462;28;20053;-72
2023/03/24 14:39:56;;;;;;;7.18;5.38;;;;;;;;;;5011756;28;20030;-71
2023/03/24 14:42:30;;;;;;;7.97;5.35;;;;;;;;;;5011620;28;20109;-72
2023/03/24 14:44:58;;;;;;;9.60;6.65;;;;;;;;;;5011107;28;20041;-71
2023/03/24 14:47:29;;;;;;;7.57;5.15;;;;;;;;;;5011722;28;20060;-72
2023/03/24 14:49:57;;;;;;;7.70;5.32;;;;;;;;;;5011229;28;20036;-72
2023/03/24 14:52:34;;;;;;;8.77;5.90;;;;;;;;;;5011536;28;20421;-72
2023/03/24 14:55:08;;;;;;;9.43;5.30;;;;;;;;;;5011392;28;20034;-71
2023/03/24 14:57:39;;;;;;;7.07;5.00;;;;;;;;;;5010044;28;20041;-72
2023/03/24 15:00:21;;;;;;;9.32;5.20;;;;;;;;;;5007523;28;20369;-72
2023/03/24 15:02:49;;;;;;;8.63;5.07;;;;;;;;;;5008145;28;20053;-73
2023/03/24 15:05:30;;;;;;;7.47;4.80;;;;;;;;;;5001514;28;20172;-72